createdAt,value
2023-05-14T00:00:40.217Z,244.85
2023-05-14T00:01:40.249Z,246.42
2023-05-14T00:02:40.340Z,245.96
2023-05-14T00:03:40.381Z,249.10
2023-05-14T00:04:40.395Z,248.42
2023-05-14T00:05:40.313Z,245.18
2023-05-14T00:06:40.339Z,245.18
2023-05-14T00:07:40.363Z,248.47
2023-05-14T00:08:40.383Z,245.67
2023-05-14T00:09:40.432Z,246.03
2023-05-14T00:10:40.435Z,247.02
2023-05-14T00:11:40.448Z,244.79
2023-05-14T00:12:40.467Z,243.13
2023-05-14T00:13:40.503Z,241.81
2023-05-14T00:14:40.516Z,239.76
2023-05-14T00:15:40.538Z,240.40
2023-05-14T00:16:40.556Z,236.82
2023-05-14T00:17:40.571Z,238.36
2023-05-14T00:18:40.750Z,235.75
2023-05-14T00:19:41.042Z,239.02
2023-05-14T00:20:40.625Z,235.33
2023-05-14T00:21:40.657Z,237.40
2023-05-14T00:22:40.682Z,235.46
2023-05-14T00:23:40.703Z,237.62
2023-05-14T00:24:40.722Z,237.51
2023-05-14T00:25:40.729Z,236.92
2023-05-14T00:26:40.771Z,240.61
2023-05-14T00:27:40.796Z,239.10
2023-05-14T00:28:40.803Z,236.92
2023-05-14T00:29:40.833Z,237.62
2023-05-14T00:30:40.846Z,237.10
2023-05-14T00:31:40.916Z,241.78
2023-05-14T00:32:40.900Z,239.04
2023-05-14T00:33:40.935Z,239.78
2023-05-14T00:34:40.955Z,240.52
2023-05-14T00:35:41.022Z,239.51
2023-05-14T00:36:40.985Z,237.42
2023-05-14T00:37:41.017Z,238.98
2023-05-14T00:38:41.034Z,239.65
2023-05-14T00:39:41.073Z,237.50
2023-05-14T00:40:41.094Z,239.07
2023-05-14T00:41:41.135Z,235.97
2023-05-14T00:42:41.163Z,235.68
2023-05-14T00:43:41.167Z,236.58
2023-05-14T00:44:41.207Z,233.43
2023-05-14T00:45:41.209Z,233.97
2023-05-14T00:46:41.260Z,231.48
2023-05-14T00:47:41.294Z,230.96
2023-05-14T00:48:41.277Z,232.09
2023-05-14T00:49:41.315Z,232.87
2023-05-14T00:50:41.316Z,228.70
2023-05-14T00:51:41.351Z,233.53
2023-05-14T00:52:41.388Z,232.50
2023-05-14T00:53:41.423Z,229.99
2023-05-14T00:54:41.473Z,227.84
2023-05-14T00:55:41.461Z,229.14
2023-05-14T00:56:41.471Z,232.69
2023-05-14T00:57:41.490Z,232.01
2023-05-14T00:58:41.527Z,231.59
2023-05-14T00:59:41.546Z,228.58
2023-05-14T01:00:41.588Z,230.66
2023-05-14T01:01:41.592Z,226.96
2023-05-14T01:02:41.733Z,229.65
2023-05-14T01:03:41.829Z,229.92
2023-05-14T01:04:41.673Z,230.46
2023-05-14T01:05:41.700Z,227.79
2023-05-14T01:06:41.727Z,227.36
2023-05-14T01:07:41.749Z,228.20
2023-05-14T01:08:41.775Z,225.13
2023-05-14T01:09:41.808Z,227.76
2023-05-14T01:10:41.830Z,227.36
2023-05-14T01:11:41.842Z,226.78
2023-05-14T01:12:41.869Z,227.39
2023-05-14T01:13:41.907Z,225.38
2023-05-14T01:14:41.947Z,225.22
2023-05-14T01:15:41.963Z,225.50
2023-05-14T01:16:42.043Z,225.97
2023-05-14T01:17:42.154Z,226.04
2023-05-14T01:18:42.079Z,224.99
2023-05-14T01:19:42.070Z,224.77
2023-05-14T01:20:42.102Z,224.69
2023-05-14T01:21:42.103Z,225.63
2023-05-14T01:22:42.153Z,227.34
2023-05-14T01:23:42.179Z,226.76
2023-05-14T01:24:42.203Z,228.21
2023-05-14T01:25:42.227Z,226.85
2023-05-14T01:26:42.226Z,228.32
2023-05-14T01:27:42.263Z,227.94
2023-05-14T01:28:42.286Z,230.66
2023-05-14T01:29:42.316Z,230.23
2023-05-14T01:30:42.334Z,230.36
2023-05-14T01:31:42.383Z,228.28
2023-05-14T01:32:42.441Z,229.08
2023-05-14T01:33:42.435Z,228.89
2023-05-14T01:34:42.448Z,227.97
2023-05-14T01:35:42.458Z,228.19
2023-05-14T01:36:42.488Z,227.42
2023-05-14T01:37:42.514Z,226.95
2023-05-14T01:38:42.529Z,229.28
2023-05-14T01:39:42.588Z,230.46
2023-05-14T01:40:42.576Z,227.83
2023-05-14T01:41:42.599Z,230.31
2023-05-14T01:42:42.645Z,228.13
2023-05-14T01:43:42.648Z,229.84
2023-05-14T01:44:42.683Z,229.36
2023-05-14T01:45:42.763Z,228.78
2023-05-14T01:46:42.798Z,229.56
2023-05-14T01:47:42.834Z,227.91
2023-05-14T01:48:42.796Z,229.92
2023-05-14T01:49:42.827Z,230.05
2023-05-14T01:50:42.860Z,228.79
2023-05-14T01:51:42.870Z,230.26
2023-05-14T01:52:42.890Z,230.11
2023-05-14T01:53:42.908Z,228.86
2023-05-14T01:54:42.953Z,227.87
2023-05-14T01:55:42.962Z,227.32
2023-05-14T01:56:42.984Z,228.98
2023-05-14T01:57:43.025Z,229.13
2023-05-14T01:58:43.065Z,230.15
2023-05-14T01:59:43.077Z,231.86
2023-05-14T02:00:43.109Z,230.90
2023-05-14T02:01:43.144Z,230.00
2023-05-14T02:02:43.185Z,229.89
2023-05-14T02:03:43.223Z,230.35
2023-05-14T02:04:43.211Z,227.76
2023-05-14T02:05:43.237Z,227.56
2023-05-14T02:06:43.277Z,228.77
2023-05-14T02:07:43.297Z,225.96
2023-05-14T02:08:43.339Z,223.30
2023-05-14T02:09:43.369Z,222.83
2023-05-14T02:10:43.378Z,223.31
2023-05-14T02:11:43.408Z,223.01
2023-05-14T02:12:43.457Z,223.13
2023-05-14T02:13:43.478Z,223.80
2023-05-14T02:14:43.533Z,224.59
2023-05-14T02:15:43.581Z,224.07
2023-05-14T02:16:43.604Z,223.79
2023-05-14T02:17:43.656Z,223.30
2023-05-14T02:18:43.700Z,220.89
2023-05-14T02:19:43.690Z,222.92
2023-05-14T02:20:43.725Z,224.06
2023-05-14T02:21:43.785Z,220.59
2023-05-14T02:22:43.772Z,222.30
2023-05-14T02:23:43.820Z,223.36
2023-05-14T02:24:43.871Z,224.23
2023-05-14T02:25:43.904Z,218.96
2023-05-14T02:26:43.916Z,224.56
2023-05-14T02:27:43.972Z,219.68
2023-05-14T02:28:43.975Z,220.94
2023-05-14T02:29:44.003Z,221.72
2023-05-14T02:30:44.037Z,220.89
2023-05-14T02:31:44.127Z,221.82
2023-05-14T02:32:44.243Z,221.29
2023-05-14T02:33:44.232Z,222.62
2023-05-14T02:34:44.173Z,221.24
2023-05-14T02:35:44.226Z,218.13
2023-05-14T02:36:44.255Z,220.11
2023-05-14T02:37:44.295Z,220.58
2023-05-14T02:38:44.308Z,216.88
2023-05-14T02:39:44.352Z,219.09
2023-05-14T02:40:44.397Z,218.40
2023-05-14T02:41:44.411Z,217.90
2023-05-14T02:42:44.447Z,216.16
2023-05-14T02:43:44.534Z,219.64
2023-05-14T02:44:44.557Z,218.25
2023-05-14T02:45:44.558Z,216.72
2023-05-14T02:46:44.599Z,217.43
2023-05-14T02:47:44.668Z,219.94
2023-05-14T02:48:44.669Z,216.32
2023-05-14T02:49:44.701Z,216.61
2023-05-14T02:50:44.741Z,214.35
2023-05-14T02:51:44.767Z,214.61
2023-05-14T02:52:44.820Z,215.46
2023-05-14T02:53:44.864Z,214.44
2023-05-14T02:54:44.917Z,212.67
2023-05-14T02:55:44.930Z,217.24
2023-05-14T02:56:44.976Z,215.34
2023-05-14T02:57:44.993Z,210.95
2023-05-14T02:58:45.034Z,212.12
2023-05-14T02:59:45.059Z,213.77
2023-05-14T03:00:45.189Z,212.10
2023-05-14T03:01:45.165Z,212.61
2023-05-14T03:02:45.230Z,214.81
2023-05-14T03:03:45.204Z,214.49
2023-05-14T03:04:45.273Z,213.07
2023-05-14T03:05:45.280Z,213.44
2023-05-14T03:06:45.321Z,214.00
2023-05-14T03:07:45.349Z,214.73
2023-05-14T03:08:45.386Z,215.09
2023-05-14T03:09:45.416Z,216.75
2023-05-14T03:10:45.470Z,214.48
2023-05-14T03:11:45.492Z,212.54
2023-05-14T03:12:45.548Z,210.11
2023-05-14T03:13:45.576Z,209.11
2023-05-14T03:14:45.611Z,209.55
2023-05-14T03:15:45.712Z,208.95
2023-05-14T03:16:45.713Z,208.85
2023-05-14T03:17:45.751Z,209.75
2023-05-14T03:18:45.804Z,209.51
2023-05-14T03:19:45.823Z,210.01
2023-05-14T03:20:45.864Z,211.76
2023-05-14T03:21:45.899Z,215.72
2023-05-14T03:22:45.929Z,211.69
2023-05-14T03:23:45.963Z,211.56
2023-05-14T03:24:46.015Z,210.72
2023-05-14T03:25:46.102Z,212.09
2023-05-14T03:26:46.098Z,212.34
2023-05-14T03:27:46.134Z,211.97
2023-05-14T03:28:46.157Z,210.46
2023-05-14T03:29:46.208Z,211.26
2023-05-14T03:30:46.311Z,211.48
2023-05-14T03:31:46.282Z,210.53
2023-05-14T03:32:46.372Z,212.50
2023-05-14T03:33:46.374Z,215.27
2023-05-14T03:34:46.414Z,215.87
2023-05-14T03:35:46.463Z,210.23
2023-05-14T03:36:46.493Z,211.92
2023-05-14T03:37:46.526Z,214.45
2023-05-14T03:38:46.572Z,210.43
2023-05-14T03:39:46.626Z,210.96
2023-05-14T03:40:46.674Z,212.34
2023-05-14T03:41:46.700Z,212.98
2023-05-14T03:42:46.750Z,210.90
2023-05-14T03:43:46.789Z,211.89
2023-05-14T03:44:46.816Z,210.25
2023-05-14T03:45:46.869Z,210.56
2023-05-14T03:46:46.907Z,214.54
2023-05-14T03:47:47.010Z,212.12
2023-05-14T03:48:47.029Z,210.06
2023-05-14T03:49:47.039Z,211.03
2023-05-14T03:50:47.097Z,208.43
2023-05-14T03:51:47.126Z,210.73
2023-05-14T03:52:47.172Z,210.24
2023-05-14T03:53:47.220Z,209.94
2023-05-14T03:54:47.252Z,210.87
2023-05-14T03:55:47.295Z,211.48
2023-05-14T03:56:47.331Z,210.12
2023-05-14T03:57:47.384Z,209.04
2023-05-14T03:58:47.426Z,207.73
2023-05-14T03:59:47.452Z,209.96
2023-05-14T04:00:47.507Z,209.67
2023-05-14T04:01:47.539Z,208.83
2023-05-14T04:02:47.609Z,210.37
2023-05-14T04:03:47.825Z,207.72
2023-05-14T04:04:47.773Z,207.44
2023-05-14T04:05:47.718Z,206.67
2023-05-14T04:06:47.743Z,209.08
2023-05-14T04:07:47.803Z,207.84
2023-05-14T04:08:47.839Z,208.26
2023-05-14T04:09:47.877Z,206.05
2023-05-14T04:10:47.925Z,208.29
2023-05-14T04:11:47.940Z,209.06
2023-05-14T04:12:48.002Z,209.22
2023-05-14T04:13:48.050Z,210.56
2023-05-14T04:14:48.093Z,207.27
2023-05-14T04:15:48.122Z,205.83
2023-05-14T04:16:48.188Z,209.38
2023-05-14T04:17:48.253Z,208.03
2023-05-14T04:18:48.311Z,207.62
2023-05-14T04:19:48.279Z,208.70
2023-05-14T04:20:48.320Z,207.67
2023-05-14T04:21:48.345Z,206.54
2023-05-14T04:22:48.364Z,206.15
2023-05-14T04:23:48.414Z,207.44
2023-05-14T04:24:48.462Z,208.95
2023-05-14T04:25:48.502Z,204.54
2023-05-14T04:26:48.530Z,205.39
2023-05-14T04:27:48.572Z,204.92
2023-05-14T04:28:48.605Z,204.65
2023-05-14T04:29:48.635Z,203.56
2023-05-14T04:30:48.674Z,204.95
2023-05-14T04:31:48.751Z,205.34
2023-05-14T04:32:48.827Z,203.13
2023-05-14T04:33:48.812Z,199.44
2023-05-14T04:34:48.853Z,202.39
2023-05-14T04:35:48.912Z,203.07
2023-05-14T04:36:48.946Z,200.70
2023-05-14T04:37:48.979Z,200.12
2023-05-14T04:38:49.004Z,198.22
2023-05-14T04:39:49.081Z,198.05
2023-05-14T04:40:49.098Z,200.60
2023-05-14T04:41:49.140Z,196.24
2023-05-14T04:42:49.198Z,199.01
2023-05-14T04:43:49.255Z,198.30
2023-05-14T04:44:49.289Z,199.06
2023-05-14T04:45:49.388Z,199.06
2023-05-14T04:46:49.379Z,197.38
2023-05-14T04:47:49.455Z,196.90
2023-05-14T04:48:49.451Z,196.18
2023-05-14T04:49:49.505Z,198.70
2023-05-14T04:50:49.558Z,194.29
2023-05-14T04:51:49.561Z,195.90
2023-05-14T04:52:49.611Z,192.78
2023-05-14T04:53:49.653Z,192.99
2023-05-14T04:54:49.775Z,194.04
2023-05-14T04:55:49.758Z,191.98
2023-05-14T04:56:49.758Z,194.00
2023-05-14T04:57:49.806Z,194.66
2023-05-14T04:58:49.846Z,194.47
2023-05-14T04:59:49.881Z,192.24
2023-05-14T05:00:49.939Z,191.43
2023-05-14T05:01:49.994Z,193.58
2023-05-14T05:02:50.036Z,191.18
2023-05-14T05:03:50.128Z,192.66
2023-05-14T05:04:50.098Z,191.49
2023-05-14T05:05:50.156Z,192.47
2023-05-14T05:06:50.180Z,192.78
2023-05-14T05:07:50.216Z,193.81
2023-05-14T05:08:50.249Z,191.25
2023-05-14T05:09:50.296Z,193.30
2023-05-14T05:10:50.366Z,192.72
2023-05-14T05:11:50.390Z,192.28
2023-05-14T05:12:50.444Z,193.10
2023-05-14T05:13:50.495Z,192.53
2023-05-14T05:14:50.522Z,191.83
2023-05-14T05:15:50.611Z,191.48
2023-05-14T05:16:50.606Z,187.48
2023-05-14T05:17:50.662Z,184.06
2023-05-14T05:18:50.742Z,189.54
2023-05-14T05:19:50.739Z,188.80
2023-05-14T05:20:50.810Z,184.56
2023-05-14T05:21:50.829Z,188.38
2023-05-14T05:22:50.858Z,183.93
2023-05-14T05:23:50.909Z,185.09
2023-05-14T05:24:50.932Z,182.86
2023-05-14T05:25:51.007Z,188.49
2023-05-14T05:26:51.034Z,186.93
2023-05-14T05:27:51.083Z,184.96
2023-05-14T05:28:51.127Z,187.21
2023-05-14T05:29:51.170Z,190.71
2023-05-14T05:30:51.241Z,190.80
2023-05-14T05:31:51.298Z,186.20
2023-05-14T05:32:51.320Z,180.09
2023-05-14T05:33:51.363Z,178.82
2023-05-14T05:34:51.414Z,181.44
2023-05-14T05:35:51.462Z,183.43
2023-05-14T05:36:51.515Z,177.07
2023-05-14T05:37:51.568Z,175.94
2023-05-14T05:38:51.598Z,175.39
2023-05-14T05:39:51.664Z,177.11
2023-05-14T05:40:51.716Z,178.15
2023-05-14T05:41:51.758Z,172.79
2023-05-14T05:42:51.794Z,171.29
2023-05-14T05:43:51.859Z,175.44
2023-05-14T05:44:51.891Z,174.76
2023-05-14T05:45:51.957Z,177.69
2023-05-14T05:46:52.028Z,173.93
2023-05-14T05:47:52.077Z,175.03
2023-05-14T05:48:52.106Z,176.01
2023-05-14T05:49:52.154Z,175.97
2023-05-14T05:50:52.193Z,176.75
2023-05-14T05:51:52.249Z,173.61
2023-05-14T05:52:52.309Z,174.73
2023-05-14T05:53:52.381Z,177.93
2023-05-14T05:54:52.410Z,173.37
2023-05-14T05:55:52.474Z,177.17
2023-05-14T05:56:52.510Z,173.09
2023-05-14T05:57:52.544Z,171.40
2023-05-14T05:58:52.603Z,175.04
2023-05-14T05:59:52.648Z,174.01
2023-05-14T06:00:52.701Z,173.57
2023-05-14T06:01:52.787Z,173.99
2023-05-14T06:02:52.826Z,175.23
2023-05-14T06:03:52.841Z,174.43
2023-05-14T06:04:52.971Z,169.75
2023-05-14T06:05:53.026Z,171.58
2023-05-14T06:06:52.973Z,173.22
2023-05-14T06:07:53.025Z,172.84
2023-05-14T06:08:53.064Z,171.84
2023-05-14T06:09:53.108Z,172.28
2023-05-14T06:10:53.172Z,170.15
2023-05-14T06:11:53.221Z,170.38
2023-05-14T06:12:53.254Z,169.88
2023-05-14T06:13:53.316Z,172.28
2023-05-14T06:14:53.359Z,166.00
2023-05-14T06:15:53.399Z,167.00
2023-05-14T06:16:53.612Z,166.92
2023-05-14T06:17:53.544Z,165.87
2023-05-14T06:18:53.574Z,168.44
2023-05-14T06:19:53.599Z,166.92
2023-05-14T06:20:53.653Z,168.37
2023-05-14T06:21:53.693Z,168.72
2023-05-14T06:22:53.748Z,166.22
2023-05-14T06:23:53.786Z,161.52
2023-05-14T06:24:53.838Z,163.21
2023-05-14T06:25:53.894Z,160.31
2023-05-14T06:26:53.920Z,161.16
2023-05-14T06:27:53.967Z,159.43
2023-05-14T06:28:54.025Z,156.58
2023-05-14T06:29:54.080Z,156.04
2023-05-14T06:30:54.111Z,152.94
2023-05-14T06:31:54.213Z,153.96
2023-05-14T06:32:54.272Z,154.06
2023-05-14T06:33:54.244Z,155.91
2023-05-14T06:34:54.289Z,152.37
2023-05-14T06:35:54.331Z,154.79
2023-05-14T06:36:54.414Z,151.97
2023-05-14T06:37:54.454Z,154.06
2023-05-14T06:38:54.503Z,151.86
2023-05-14T06:39:57.060Z,151.17
2023-05-14T06:40:54.509Z,152.98
2023-05-14T06:41:54.490Z,152.10
2023-05-14T06:42:54.491Z,154.61
2023-05-14T06:43:54.503Z,150.46
2023-05-14T06:44:54.490Z,150.85
2023-05-14T06:45:54.485Z,148.37
2023-05-14T06:46:54.454Z,144.17
2023-05-14T06:47:54.534Z,145.77
2023-05-14T06:48:55.671Z,139.60
2023-05-14T06:49:54.431Z,139.85
2023-05-14T06:50:54.438Z,140.74
2023-05-14T06:51:54.433Z,140.80
2023-05-14T06:52:54.433Z,140.37
2023-05-14T06:53:54.418Z,140.74
2023-05-14T06:54:54.430Z,140.18
2023-05-14T06:55:54.458Z,145.97
2023-05-14T06:56:54.516Z,141.17
2023-05-14T06:57:54.550Z,143.40
2023-05-14T06:58:54.596Z,139.40
2023-05-14T06:59:54.628Z,136.76
2023-05-14T07:00:54.662Z,138.49
2023-05-14T07:01:54.707Z,141.97
2023-05-14T07:02:54.762Z,138.25
2023-05-14T07:03:54.817Z,139.58
2023-05-14T07:04:54.802Z,138.62
2023-05-14T07:05:54.843Z,138.41
2023-05-14T07:06:54.879Z,134.34
2023-05-14T07:07:54.916Z,136.35
2023-05-14T07:08:54.983Z,134.22
2023-05-14T07:09:55.019Z,133.31
2023-05-14T07:10:55.054Z,136.70
2023-05-14T07:11:55.068Z,136.97
2023-05-14T07:12:55.098Z,135.72
2023-05-14T07:13:55.161Z,133.63
2023-05-14T07:14:55.164Z,130.45
2023-05-14T07:15:55.228Z,128.73
2023-05-14T07:16:55.298Z,130.28
2023-05-14T07:17:55.319Z,138.28
2023-05-14T07:18:55.367Z,139.93
2023-05-14T07:19:55.385Z,139.32
2023-05-14T07:20:55.416Z,139.17
2023-05-14T07:21:55.439Z,150.72
2023-05-14T07:22:55.473Z,154.79
2023-05-14T07:23:55.513Z,160.11
2023-05-14T07:24:55.523Z,159.11
2023-05-14T07:25:55.571Z,152.85
2023-05-14T07:26:55.602Z,156.76
2023-05-14T07:27:55.614Z,154.30
2023-05-14T07:28:55.641Z,155.49
2023-05-14T07:29:55.672Z,156.75
2023-05-14T07:30:55.734Z,152.22
2023-05-14T07:31:55.738Z,151.89
2023-05-14T07:32:55.801Z,144.55
2023-05-14T07:33:55.797Z,148.45
2023-05-14T07:34:55.803Z,150.53
2023-05-14T07:35:55.846Z,157.23
2023-05-14T07:36:55.850Z,160.22
2023-05-14T07:37:55.901Z,162.81
2023-05-14T07:38:55.906Z,165.77
2023-05-14T07:39:55.933Z,168.59
2023-05-14T07:40:55.950Z,172.07
2023-05-14T07:41:55.975Z,168.09
2023-05-14T07:42:55.996Z,171.44
2023-05-14T07:43:56.014Z,169.83
2023-05-14T07:44:56.053Z,174.38
2023-05-14T07:45:56.046Z,174.26
2023-05-14T07:46:56.073Z,172.91
2023-05-14T07:47:56.195Z,170.60
2023-05-14T07:48:56.091Z,173.21
2023-05-14T07:49:56.113Z,172.92
2023-05-14T07:50:56.127Z,174.62
2023-05-14T07:51:56.160Z,168.23
2023-05-14T07:52:56.163Z,169.37
2023-05-14T07:53:56.196Z,178.42
2023-05-14T07:54:56.244Z,179.66
2023-05-14T07:55:56.217Z,178.01
2023-05-14T07:56:56.235Z,182.62
2023-05-14T07:57:56.249Z,172.39
2023-05-14T07:58:56.257Z,173.05
2023-05-14T07:59:56.277Z,176.56
2023-05-14T08:00:56.300Z,182.02
2023-05-14T08:01:56.384Z,192.19
2023-05-14T08:02:56.419Z,192.85
2023-05-14T08:03:56.437Z,188.68
2023-05-14T08:04:56.348Z,196.62
2023-05-14T08:05:56.380Z,197.49
2023-05-14T08:06:56.401Z,192.13
2023-05-14T08:07:56.413Z,203.07
2023-05-14T08:08:56.425Z,205.53
2023-05-14T08:09:56.428Z,197.26
2023-05-14T08:10:56.462Z,196.65
2023-05-14T08:11:56.443Z,199.84
2023-05-14T08:12:56.462Z,202.29
2023-05-14T08:13:56.432Z,206.53
2023-05-14T08:14:56.446Z,207.34
2023-05-14T08:15:56.445Z,210.64
2023-05-14T08:16:56.533Z,213.76
2023-05-14T08:17:56.469Z,211.65
2023-05-14T08:18:56.454Z,211.60
2023-05-14T08:19:56.431Z,205.52
2023-05-14T08:20:56.453Z,196.04
2023-05-14T08:21:56.448Z,193.95
2023-05-14T08:22:56.454Z,177.59
2023-05-14T08:23:56.476Z,184.35
2023-05-14T08:24:56.513Z,181.58
2023-05-14T08:25:56.518Z,184.62
2023-05-14T08:26:56.545Z,173.58
2023-05-14T08:27:56.581Z,170.86
2023-05-14T08:28:56.610Z,171.68
2023-05-14T08:29:56.652Z,168.14
2023-05-14T08:30:56.732Z,160.09
2023-05-14T08:31:56.731Z,149.06
2023-05-14T08:32:56.823Z,154.55
2023-05-14T08:33:56.837Z,156.55
2023-05-14T08:34:56.887Z,147.31
2023-05-14T08:35:56.962Z,140.48
2023-05-14T08:36:57.025Z,144.09
2023-05-14T08:37:57.088Z,141.22
2023-05-14T08:38:57.152Z,142.30
2023-05-14T08:39:57.185Z,139.44
2023-05-14T08:40:57.319Z,137.54
2023-05-14T08:41:57.304Z,138.68
2023-05-14T08:42:57.391Z,144.36
2023-05-14T08:43:57.422Z,139.26
2023-05-14T08:44:57.466Z,134.80
2023-05-14T08:45:57.508Z,134.01
2023-05-14T08:46:57.547Z,130.04
2023-05-14T08:47:57.652Z,131.80
2023-05-14T08:48:57.747Z,133.96
2023-05-14T08:49:57.746Z,138.25
2023-05-14T08:50:57.765Z,136.99
2023-05-14T08:51:57.813Z,135.95
2023-05-14T08:52:57.846Z,140.37
2023-05-14T08:53:57.887Z,136.36
2023-05-14T08:54:57.946Z,136.73
2023-05-14T08:55:57.982Z,137.45
2023-05-14T08:56:58.026Z,134.89
2023-05-14T08:57:58.050Z,139.89
2023-05-14T08:58:58.087Z,137.72
2023-05-14T08:59:58.130Z,137.45
2023-05-14T09:00:58.167Z,142.87
2023-05-14T09:01:58.210Z,141.14
2023-05-14T09:02:58.247Z,138.06
2023-05-14T09:03:58.301Z,138.25
2023-05-14T09:04:58.269Z,136.62
2023-05-14T09:06:00.141Z,139.27
2023-05-14T09:06:58.337Z,138.06
2023-05-14T09:07:58.357Z,139.98
2023-05-14T09:08:58.376Z,139.41
2023-05-14T09:09:58.393Z,142.73
2023-05-14T09:10:58.424Z,143.56
2023-05-14T09:11:58.429Z,142.48
2023-05-14T09:12:58.458Z,138.89
2023-05-14T09:13:58.477Z,142.36
2023-05-14T09:14:58.485Z,139.51
2023-05-14T09:15:58.535Z,143.61
2023-05-14T09:16:58.545Z,137.57
2023-05-14T09:17:58.614Z,139.59
2023-05-14T09:18:58.585Z,140.56
2023-05-14T09:19:58.610Z,144.89
2023-05-14T09:20:58.655Z,142.44
2023-05-14T09:21:58.655Z,147.05
2023-05-14T09:22:58.651Z,149.22
2023-05-14T09:23:58.696Z,146.30
2023-05-14T09:24:58.698Z,153.22
2023-05-14T09:25:58.707Z,151.09
2023-05-14T09:26:58.717Z,143.21
2023-05-14T09:27:59.056Z,148.30
2023-05-14T09:28:58.738Z,146.55
2023-05-14T09:29:58.745Z,143.55
2023-05-14T09:30:58.744Z,144.72
2023-05-14T09:31:58.817Z,141.89
2023-05-14T09:32:58.796Z,140.80
2023-05-14T09:33:58.901Z,142.30
2023-05-14T09:34:58.783Z,144.81
2023-05-14T09:35:58.807Z,147.73
2023-05-14T09:36:58.814Z,151.67
2023-05-14T09:37:58.829Z,153.50
2023-05-14T09:38:58.844Z,154.25
2023-05-14T09:39:58.844Z,154.07
2023-05-14T09:40:58.881Z,151.67
2023-05-14T09:41:58.889Z,151.94
2023-05-14T09:42:58.916Z,154.68
2023-05-14T09:43:58.912Z,153.74
2023-05-14T09:44:58.922Z,150.42
2023-05-14T09:45:58.934Z,151.47
2023-05-14T09:46:59.056Z,155.15
2023-05-14T09:47:59.144Z,147.59
2023-05-14T09:48:59.013Z,149.59
2023-05-14T09:49:59.078Z,152.00
2023-05-14T09:50:59.081Z,150.62
2023-05-14T09:51:59.122Z,145.56
2023-05-14T09:52:59.100Z,144.17
2023-05-14T09:53:59.092Z,148.39
2023-05-14T09:54:59.134Z,145.45
2023-05-14T09:55:59.125Z,136.52
2023-05-14T09:56:59.146Z,139.17
2023-05-14T09:57:59.157Z,140.68
2023-05-14T09:58:59.204Z,146.57
2023-05-14T09:59:59.280Z,150.69
2023-05-14T10:00:59.325Z,145.56
2023-05-14T10:01:59.304Z,143.71
2023-05-14T10:02:59.335Z,141.47
2023-05-14T10:03:59.358Z,144.46
2023-05-14T10:04:59.358Z,141.89
2023-05-14T10:05:59.361Z,145.47
2023-05-14T10:06:59.375Z,139.89
2023-05-14T10:07:59.405Z,142.79
2023-05-14T10:08:59.401Z,142.81
2023-05-14T10:09:59.697Z,141.87
2023-05-14T10:10:59.402Z,139.25
2023-05-14T10:11:59.420Z,131.23
2023-05-14T10:12:59.425Z,133.67
2023-05-14T10:13:59.433Z,136.08
2023-05-14T10:14:59.432Z,130.53
2023-05-14T10:15:59.411Z,132.31
2023-05-14T10:16:59.446Z,133.25
2023-05-14T10:17:59.490Z,128.02
2023-05-14T10:18:59.492Z,128.59
2023-05-14T10:19:59.420Z,129.76
2023-05-14T10:20:59.423Z,128.92
2023-05-14T10:21:59.411Z,126.15
2023-05-14T10:22:59.417Z,127.90
2023-05-14T10:23:59.393Z,127.95
2023-05-14T10:24:59.396Z,131.84
2023-05-14T10:25:59.394Z,130.08
2023-05-14T10:26:59.413Z,129.36
2023-05-14T10:27:59.420Z,131.90
2023-05-14T10:28:59.424Z,134.56
2023-05-14T10:29:59.428Z,132.74
2023-05-14T10:30:59.477Z,130.98
2023-05-14T10:31:59.405Z,129.83
2023-05-14T10:32:59.481Z,130.30
2023-05-14T10:33:59.954Z,129.68
2023-05-14T10:34:59.424Z,129.56
2023-05-14T10:35:59.425Z,130.76
2023-05-14T10:36:59.419Z,127.84
2023-05-14T10:37:59.419Z,127.54
2023-05-14T10:38:59.451Z,124.69
2023-05-14T10:39:59.465Z,129.11
2023-05-14T10:40:59.443Z,124.22
2023-05-14T10:41:59.451Z,126.63
2023-05-14T10:42:59.450Z,125.39
2023-05-14T10:43:59.483Z,123.40
2023-05-14T10:44:59.445Z,122.21
2023-05-14T10:45:59.452Z,126.05
2023-05-14T10:46:59.500Z,125.70
2023-05-14T10:47:59.485Z,126.26
2023-05-14T10:48:59.441Z,121.52
2023-05-14T10:49:59.449Z,123.04
2023-05-14T10:50:59.503Z,126.80
2023-05-14T10:51:59.480Z,124.90
2023-05-14T10:52:59.443Z,119.47
2023-05-14T10:53:59.468Z,122.43
2023-05-14T10:55:02.678Z,119.75
2023-05-14T10:55:59.432Z,125.06
2023-05-14T10:56:59.429Z,121.12
2023-05-14T10:57:59.438Z,121.92
2023-05-14T10:58:59.425Z,120.92
2023-05-14T10:59:59.411Z,119.45
2023-05-14T11:00:59.411Z,121.32
2023-05-14T11:01:59.429Z,120.58
2023-05-14T11:02:59.433Z,117.55
2023-05-14T11:03:59.437Z,120.43
2023-05-14T11:04:59.392Z,120.69
2023-05-14T11:05:59.361Z,123.27
2023-05-14T11:06:59.372Z,124.09
2023-05-14T11:07:59.368Z,122.51
2023-05-14T11:08:59.355Z,123.93
2023-05-14T11:09:59.336Z,124.67
2023-05-14T11:10:59.351Z,125.85
2023-05-14T11:11:59.341Z,123.83
2023-05-14T11:12:59.334Z,129.35
2023-05-14T11:13:59.330Z,132.99
2023-05-14T11:14:59.335Z,126.84
2023-05-14T11:16:02.241Z,123.73
2023-05-14T11:17:00.362Z,124.13
2023-05-14T11:17:59.338Z,125.06
2023-05-14T11:18:59.309Z,124.88
2023-05-14T11:19:59.281Z,127.06
2023-05-14T11:20:59.394Z,130.43
2023-05-14T11:21:59.252Z,127.05
2023-05-14T11:22:59.250Z,123.41
2023-05-14T11:23:59.252Z,127.78
2023-05-14T11:24:59.250Z,129.70
2023-05-14T11:25:59.255Z,131.67
2023-05-14T11:26:59.244Z,133.91
2023-05-14T11:27:59.217Z,130.98
2023-05-14T11:28:59.208Z,134.88
2023-05-14T11:29:59.206Z,124.15
2023-05-14T11:30:59.192Z,132.08
2023-05-14T11:31:59.264Z,133.33
2023-05-14T11:33:01.778Z,134.98
2023-05-14T11:33:59.170Z,132.50
2023-05-14T11:34:59.167Z,137.58
2023-05-14T11:35:59.172Z,138.61
2023-05-14T11:36:59.168Z,135.94
2023-05-14T11:37:59.163Z,129.12
2023-05-14T11:38:59.153Z,136.41
2023-05-14T11:39:59.148Z,141.63
2023-05-14T11:40:59.150Z,143.71
2023-05-14T11:41:59.146Z,138.23
2023-05-14T11:42:59.158Z,139.77
2023-05-14T11:43:59.114Z,145.44
2023-05-14T11:44:59.097Z,145.80
2023-05-14T11:45:59.126Z,145.10
2023-05-14T11:46:59.116Z,138.56
2023-05-14T11:47:59.107Z,144.33
2023-05-14T11:48:59.080Z,138.53
2023-05-14T11:49:59.064Z,145.48
2023-05-14T11:50:59.064Z,149.22
2023-05-14T11:51:59.047Z,156.82
2023-05-14T11:52:59.052Z,155.63
2023-05-14T11:53:59.052Z,149.14
2023-05-14T11:54:59.018Z,155.56
2023-05-14T11:55:59.025Z,147.63
2023-05-14T11:56:59.007Z,160.54
2023-05-14T11:57:59.003Z,159.88
2023-05-14T11:58:59.003Z,154.71
2023-05-14T11:59:59.019Z,147.67
2023-05-14T12:00:59.005Z,146.92
2023-05-14T12:01:58.966Z,148.10
2023-05-14T12:02:59.013Z,152.47
2023-05-14T12:03:59.081Z,159.08
2023-05-14T12:04:58.948Z,154.67
2023-05-14T12:05:58.942Z,165.93
2023-05-14T12:06:58.936Z,158.92
2023-05-14T12:07:58.944Z,157.77
2023-05-14T12:08:58.919Z,153.77
2023-05-14T12:09:58.928Z,154.16
2023-05-14T12:10:58.970Z,148.31
2023-05-14T12:11:58.914Z,143.04
2023-05-14T12:12:58.896Z,137.06
2023-05-14T12:13:58.922Z,140.98
2023-05-14T12:14:58.878Z,143.89
2023-05-14T12:15:58.893Z,140.67
2023-05-14T12:16:58.880Z,137.99
2023-05-14T12:17:58.904Z,143.48
2023-05-14T12:18:58.900Z,144.25
2023-05-14T12:19:58.859Z,139.53
2023-05-14T12:20:58.852Z,139.34
2023-05-14T12:21:58.841Z,135.47
2023-05-14T12:22:58.823Z,123.79
2023-05-14T12:23:58.816Z,126.90
2023-05-14T12:24:58.831Z,131.63
2023-05-14T12:25:58.802Z,135.40
2023-05-14T12:26:58.794Z,132.73
2023-05-14T12:27:58.803Z,135.70
2023-05-14T12:28:58.787Z,129.91